Portada
METAR-TAF:

METAR-TAF

Aeropuertos :

Malé, Hulhule Island, Maldivas

Aeropuerto Internacional de Malé

latitud: 04-12N, longitud: 073-32E, altitud: 2 m

Observación

El informe se hizo hace 36 minutos, a las 08:00 UTC
Viento 16 kt del oeste
Temperatura 30°C
Humedad 75%
Presión 1010 hPa
Visibilidad 10 km o más
Escasas nubes a una altura de 1800 ft
Nubes dispersas a una altura de 27000 ft

METAR: VRMM 280800Z 27016KT 9999 FEW018 SCT270 30/25 Q1010 NOSIG

Hora: 13:36 (08:36 UTC)

Pronóstico

El informe se hizo hace 3 horas y 36 minutos, a las 05:00 UTC
Pronóstico válido del 28 a las 06 UTC al 29 a las 12 UTC
Viento 15 kt del oeste-suroeste
Visibilidad 10 km o más
Escasas nubes a una altura de 1800 ft
Temporalmente
del 28 a las 07 UTC al 28 a las 13 UTC
Visibilidad: 5000 m
Escasas nubes a una altura de 1700 ft, Cumulonimbus.
chaparrones de lluvia

TAF: VRMM 280500Z 2806/2912 25015KT 9999 FEW018 TEMPO 2807/2813 5000 -SHRA FEW017CB

Observaciones y pronósticos meteorológicos de más de 4000 aeropuertos (mensajes METAR y TAF).

Los puntos amarillos y rojos representan las estaciones disponibles.

Ponga el ratón en el punto deseado para ver el nombre de la estación.

Haga clic para ver las observaciones y los pronósticos meteorológicos.

Para cambiar el mapa : haga clic en los botones verdes con una cruz de color negro para hacer un zoom, en el botón verde con un guión para alejar o en las flechas verdes para mapas adyacentes.


METAR-TAF: